createdAt,value
2018-09-06T00:00:42.985Z,16.63
2018-09-06T00:03:11.138Z,16.50
2018-09-06T00:05:39.280Z,16.27
2018-09-06T00:08:07.613Z,15.93
2018-09-06T00:10:35.736Z,16.70
2018-09-06T00:13:03.960Z,15.80
2018-09-06T00:15:32.223Z,16.07
2018-09-06T00:18:00.398Z,15.43
2018-09-06T00:20:28.544Z,15.97
2018-09-06T00:22:56.757Z,16.03
2018-09-06T00:25:24.895Z,17.20
2018-09-06T00:27:53.041Z,17.63
2018-09-06T00:30:21.176Z,19.27
2018-09-06T00:32:49.382Z,18.63
2018-09-06T00:35:17.515Z,19.07
2018-09-06T00:37:45.668Z,18.20
2018-09-06T00:40:13.784Z,18.97
2018-09-06T00:42:42.152Z,17.87
2018-09-06T00:45:10.297Z,17.87
2018-09-06T00:47:38.456Z,18.03
2018-09-06T00:50:12.807Z,17.65
2018-09-06T00:52:40.968Z,17.73
2018-09-06T00:55:09.252Z,17.23
2018-09-06T00:57:37.387Z,16.43
2018-09-06T01:00:05.531Z,17.20
2018-09-06T01:02:33.672Z,17.33
2018-09-06T01:05:01.798Z,17.60
2018-09-06T01:07:29.909Z,16.20
2018-09-06T01:09:58.050Z,17.10
2018-09-06T01:12:26.159Z,16.40
2018-09-06T01:14:54.525Z,17.67
2018-09-06T01:17:22.633Z,16.60
2018-09-06T01:19:50.766Z,16.73
2018-09-06T01:22:18.850Z,17.53
2018-09-06T01:24:46.957Z,19.27
2018-09-06T01:27:15.057Z,20.00
2018-09-06T01:29:43.192Z,19.70
2018-09-06T01:32:11.289Z,19.53
2018-09-06T01:34:39.423Z,18.83
2018-09-06T01:37:08.330Z,18.00
2018-09-06T01:39:37.081Z,20.63
2018-09-06T01:42:05.556Z,19.50
2018-09-06T01:44:33.694Z,19.20
2018-09-06T01:47:01.765Z,19.07
2018-09-06T01:49:30.194Z,19.63
2018-09-06T01:51:58.295Z,20.53
2018-09-06T01:54:26.413Z,18.90
2018-09-06T01:56:54.519Z,20.40
2018-09-06T01:59:22.613Z,21.07
2018-09-06T02:01:50.753Z,20.30
2018-09-06T02:04:18.852Z,20.57
2018-09-06T02:06:46.952Z,20.50
2018-09-06T02:09:15.147Z,19.83
2018-09-06T02:11:43.244Z,21.63
2018-09-06T02:14:11.365Z,19.67
2018-09-06T02:16:39.457Z,22.60
2018-09-06T02:19:07.591Z,23.07
2018-09-06T02:21:35.686Z,22.03
2018-09-06T02:24:03.786Z,21.80
2018-09-06T02:26:31.903Z,23.47
2018-09-06T02:29:00.019Z,26.00
2018-09-06T02:31:28.121Z,24.77
2018-09-06T02:33:56.229Z,25.57
2018-09-06T02:36:24.362Z,25.07
2018-09-06T02:38:52.487Z,27.93
2018-09-06T02:41:20.591Z,28.13
2018-09-06T02:43:48.705Z,29.43
2018-09-06T02:46:16.820Z,31.10
2018-09-06T02:48:44.921Z,30.33
2018-09-06T02:51:15.721Z,32.10
2018-09-06T02:53:44.100Z,31.37
2018-09-06T02:56:12.930Z,33.85
2018-09-06T02:58:41.032Z,34.60
2018-09-06T03:01:09.274Z,36.90
2018-09-06T03:03:37.422Z,36.73
2018-09-06T03:06:05.783Z,45.83
2018-09-06T03:08:33.902Z,47.73
2018-09-06T03:12:05.270Z,47.60
2018-09-06T03:14:33.416Z,47.37
2018-09-06T03:17:01.589Z,46.93
2018-09-06T03:19:29.748Z,46.87
2018-09-06T03:21:57.880Z,48.80
2018-09-06T03:24:26.013Z,48.60
2018-09-06T03:26:54.109Z,51.27
2018-09-06T03:29:22.230Z,49.73
2018-09-06T03:31:50.327Z,50.17
2018-09-06T03:34:18.439Z,49.00
2018-09-06T03:36:46.538Z,50.67
2018-09-06T03:39:14.689Z,52.90
2018-09-06T03:41:42.812Z,49.37
2018-09-06T03:44:10.917Z,43.33
2018-09-06T03:46:39.005Z,47.90
2018-09-06T03:49:07.124Z,51.60
2018-09-06T03:51:35.218Z,54.17
2018-09-06T03:54:03.343Z,49.10
2018-09-06T03:56:31.466Z,50.40
2018-09-06T03:58:59.570Z,51.67
2018-09-06T04:01:27.704Z,53.67
2018-09-06T04:03:55.813Z,47.70
2018-09-06T04:06:23.922Z,50.20
2018-09-06T04:08:52.024Z,50.53
2018-09-06T04:11:20.161Z,51.37
2018-09-06T04:13:48.267Z,50.50
2018-09-06T04:16:16.380Z,49.77
2018-09-06T04:18:44.473Z,48.13
2018-09-06T04:21:12.582Z,51.33
2018-09-06T04:23:40.692Z,55.47
2018-09-06T04:26:08.893Z,55.37
2018-09-06T04:28:43.109Z,56.07
2018-09-06T04:31:11.233Z,57.87
2018-09-06T04:33:39.337Z,55.30
2018-09-06T04:36:07.660Z,59.80
2018-09-06T04:38:35.655Z,56.23
2018-09-06T04:41:03.976Z,54.60
2018-09-06T04:43:32.436Z,55.70
2018-09-06T04:46:00.517Z,57.67
2018-09-06T04:48:28.623Z,58.63
2018-09-06T04:50:56.749Z,54.27
2018-09-06T04:53:24.856Z,57.07
2018-09-06T04:55:52.958Z,52.70
2018-09-06T04:58:21.121Z,58.00
2018-09-06T05:00:49.189Z,57.73
2018-09-06T05:03:17.430Z,54.80
2018-09-06T05:05:45.534Z,57.60
2018-09-06T05:08:14.481Z,60.63
2018-09-06T05:10:42.817Z,58.87
2018-09-06T05:13:10.948Z,58.90
2018-09-06T05:15:39.076Z,58.00
2018-09-06T05:18:07.223Z,62.83
2018-09-06T05:20:35.613Z,59.27
2018-09-06T05:23:04.136Z,64.33
2018-09-06T05:25:32.226Z,65.30
2018-09-06T05:28:00.335Z,63.93
2018-09-06T05:30:28.448Z,64.93
2018-09-06T05:32:56.643Z,61.07
2018-09-06T05:35:24.765Z,59.67
2018-09-06T05:37:52.856Z,61.77
2018-09-06T05:40:20.981Z,60.13
2018-09-06T05:42:49.101Z,58.43
2018-09-06T05:45:17.215Z,62.03
2018-09-06T05:47:49.581Z,61.93
2018-09-06T05:50:17.696Z,59.23
2018-09-06T05:52:45.804Z,62.47
2018-09-06T05:55:13.913Z,58.47
2018-09-06T05:57:42.012Z,58.63
2018-09-06T06:00:15.667Z,57.57
2018-09-06T06:02:43.795Z,59.33
2018-09-06T06:05:11.942Z,59.60
2018-09-06T06:07:51.691Z,58.53
2018-09-06T06:10:19.823Z,58.37
2018-09-06T06:12:47.921Z,61.27
2018-09-06T06:15:16.036Z,56.13
2018-09-06T06:17:44.142Z,60.70
2018-09-06T06:20:12.376Z,66.73
2018-09-06T06:22:40.505Z,63.73
2018-09-06T06:25:08.633Z,65.03
2018-09-06T06:27:36.742Z,69.87
2018-09-06T06:30:04.929Z,68.40
2018-09-06T06:32:33.341Z,73.10
2018-09-06T06:35:01.513Z,73.70
2018-09-06T06:37:29.625Z,71.37
2018-09-06T06:39:57.791Z,70.17
2018-09-06T06:42:25.844Z,73.70
2018-09-06T06:44:53.937Z,70.87
2018-09-06T06:47:22.045Z,72.50
2018-09-06T06:49:50.226Z,71.33
2018-09-06T06:52:18.332Z,74.87
2018-09-06T06:54:46.432Z,71.50
2018-09-06T06:57:14.582Z,67.93
2018-09-06T06:59:43.062Z,61.83
2018-09-06T07:02:11.189Z,63.77
2018-09-06T07:04:39.305Z,65.47
2018-09-06T07:07:07.471Z,62.70
2018-09-06T07:09:35.537Z,59.00
2018-09-06T07:12:03.642Z,58.43
2018-09-06T07:14:31.753Z,56.30
2018-09-06T07:17:00.446Z,57.87
2018-09-06T07:19:28.576Z,57.60
2018-09-06T07:21:56.690Z,55.30
2018-09-06T07:24:24.787Z,49.53
2018-09-06T07:26:52.903Z,54.13
2018-09-06T07:29:21.015Z,51.63
2018-09-06T07:31:49.134Z,49.57
2018-09-06T07:34:17.241Z,49.50
2018-09-06T07:36:45.378Z,53.57
2018-09-06T07:39:13.484Z,52.07
2018-09-06T07:41:41.607Z,50.70
2018-09-06T07:44:09.713Z,44.73
2018-09-06T07:46:37.825Z,45.07
2018-09-06T07:49:05.916Z,44.07
2018-09-06T07:51:34.127Z,46.10
2018-09-06T07:54:02.152Z,48.07
2018-09-06T07:56:30.251Z,45.37
2018-09-06T07:58:58.347Z,46.20
2018-09-06T08:01:26.476Z,43.87
2018-09-06T08:03:54.573Z,40.07
2018-09-06T08:06:22.664Z,38.77
2018-09-06T08:08:50.768Z,36.77
2018-09-06T08:11:18.878Z,38.33
2018-09-06T08:13:46.989Z,38.57
2018-09-06T08:16:15.111Z,38.83
2018-09-06T08:18:43.280Z,39.97
2018-09-06T08:21:11.361Z,39.70
2018-09-06T08:23:39.457Z,38.10
2018-09-06T08:26:07.763Z,35.83
2018-09-06T08:28:35.892Z,35.50
2018-09-06T08:31:04.075Z,32.17
2018-09-06T08:33:32.165Z,28.83
2018-09-06T08:36:00.259Z,26.00
2018-09-06T08:38:28.373Z,23.93
2018-09-06T08:40:56.500Z,24.57
2018-09-06T08:43:24.662Z,23.83
2018-09-06T08:45:52.725Z,20.67
2018-09-06T08:48:20.834Z,23.47
2018-09-06T08:50:48.937Z,22.53
2018-09-06T08:53:17.045Z,22.10
2018-09-06T08:55:45.161Z,21.17
2018-09-06T08:58:13.282Z,20.07
2018-09-06T09:00:45.626Z,19.30
2018-09-06T09:03:13.798Z,20.90
2018-09-06T09:05:41.827Z,21.83
2018-09-06T09:08:09.922Z,21.20
2018-09-06T09:10:38.029Z,20.70
2018-09-06T09:13:06.408Z,20.80
2018-09-06T09:15:34.773Z,25.50
2018-09-06T09:18:02.893Z,21.13
2018-09-06T09:20:30.995Z,21.27
2018-09-06T09:22:59.119Z,20.47
2018-09-06T09:25:27.242Z,20.73
2018-09-06T09:27:55.338Z,20.53
2018-09-06T09:30:23.446Z,20.23
2018-09-06T09:32:51.573Z,20.03
2018-09-06T09:35:19.669Z,18.60
2018-09-06T09:37:47.781Z,19.53
2018-09-06T09:40:15.881Z,18.53
2018-09-06T09:42:44.005Z,19.87
2018-09-06T09:45:12.149Z,18.47
2018-09-06T09:47:40.345Z,19.50
2018-09-06T09:50:08.421Z,20.33
2018-09-06T09:52:36.582Z,24.03
2018-09-06T09:55:04.685Z,19.43
2018-09-06T09:57:32.808Z,19.80
2018-09-06T10:00:01.099Z,19.33
2018-09-06T10:02:29.316Z,20.30
2018-09-06T10:05:02.977Z,20.13
2018-09-06T10:07:36.595Z,22.33
2018-09-06T10:10:04.726Z,26.90
2018-09-06T10:12:32.829Z,24.83
2018-09-06T10:15:00.936Z,28.07
2018-09-06T10:17:29.065Z,27.60
2018-09-06T10:19:57.212Z,28.67
2018-09-06T10:22:25.306Z,26.80
2018-09-06T10:24:53.398Z,24.73
2018-09-06T10:27:21.496Z,23.80
2018-09-06T10:29:49.650Z,31.40
2018-09-06T10:32:17.754Z,32.17
2018-09-06T10:34:45.866Z,33.63
2018-09-06T10:37:14.078Z,35.10
2018-09-06T10:39:42.327Z,34.13
2018-09-06T10:42:10.424Z,32.80
2018-09-06T10:44:38.545Z,31.23
2018-09-06T10:47:06.729Z,28.70
2018-09-06T10:49:34.830Z,30.67
2018-09-06T10:52:03.109Z,28.00
2018-09-06T10:54:31.235Z,30.40
2018-09-06T10:56:59.341Z,34.53
2018-09-06T10:59:28.076Z,35.07
2018-09-06T11:01:56.165Z,36.60
2018-09-06T11:04:24.274Z,35.40
2018-09-06T11:06:52.374Z,36.40
2018-09-06T11:09:20.489Z,34.20
2018-09-06T11:11:48.981Z,32.97
2018-09-06T11:14:17.090Z,31.77
2018-09-06T11:16:45.194Z,34.60
2018-09-06T11:19:13.314Z,32.03
2018-09-06T11:21:41.532Z,34.00
2018-09-06T11:24:09.545Z,30.70
2018-09-06T11:26:37.636Z,34.53
2018-09-06T11:29:05.819Z,33.03
2018-09-06T11:31:33.919Z,34.30
2018-09-06T11:34:02.088Z,37.33
2018-09-06T11:36:30.201Z,39.33
2018-09-06T11:38:58.558Z,35.83
2018-09-06T11:41:26.698Z,36.70
2018-09-06T11:43:54.821Z,39.10
2018-09-06T11:46:22.952Z,35.03
2018-09-06T11:48:51.121Z,37.97
2018-09-06T11:51:19.248Z,38.97
2018-09-06T11:53:47.332Z,37.53
2018-09-06T11:56:15.454Z,40.37
2018-09-06T11:58:43.561Z,36.40
2018-09-06T12:01:11.766Z,39.43
2018-09-06T12:03:39.933Z,39.67
2018-09-06T12:06:08.216Z,39.53
2018-09-06T12:08:36.233Z,40.27
2018-09-06T12:11:04.337Z,38.73
2018-09-06T12:13:32.472Z,39.87
2018-09-06T12:16:00.593Z,37.37
2018-09-06T12:18:28.706Z,40.13
2018-09-06T12:20:56.816Z,41.97
2018-09-06T12:23:24.921Z,43.73
2018-09-06T12:25:53.106Z,40.47
2018-09-06T12:28:21.226Z,41.47
2018-09-06T12:30:49.364Z,42.37
2018-09-06T12:33:17.567Z,40.50
2018-09-06T12:35:45.657Z,40.57
2018-09-06T12:38:13.759Z,39.93
2018-09-06T12:40:41.870Z,37.20
2018-09-06T12:43:10.021Z,33.97
2018-09-06T12:45:38.126Z,40.07
2018-09-06T12:48:06.285Z,41.07
2018-09-06T12:50:34.419Z,41.30
2018-09-06T12:53:02.560Z,38.07
2018-09-06T12:55:30.635Z,44.57
2018-09-06T12:57:58.740Z,43.57
2018-09-06T13:00:26.956Z,42.87
2018-09-06T13:02:55.056Z,41.07
2018-09-06T13:05:23.175Z,43.40
2018-09-06T13:07:51.290Z,41.60
2018-09-06T13:10:19.406Z,41.90
2018-09-06T13:12:47.490Z,39.60
2018-09-06T13:15:15.601Z,44.17
2018-09-06T13:17:43.724Z,43.73
2018-09-06T13:20:11.842Z,40.03
2018-09-06T13:22:39.954Z,42.50
2018-09-06T13:25:08.070Z,41.87
2018-09-06T13:27:36.187Z,43.57
2018-09-06T13:30:04.535Z,41.97
2018-09-06T13:32:32.642Z,38.00
2018-09-06T13:35:00.773Z,35.90
2018-09-06T13:37:28.883Z,36.73
2018-09-06T13:39:56.989Z,35.43
2018-09-06T13:42:25.182Z,32.83
2018-09-06T13:44:53.274Z,35.47
2018-09-06T13:47:21.396Z,32.43
2018-09-06T13:49:49.536Z,32.80
2018-09-06T13:52:17.729Z,32.50
2018-09-06T13:54:45.758Z,31.73
2018-09-06T13:57:13.849Z,32.10
2018-09-06T13:59:41.983Z,30.53
2018-09-06T14:02:10.106Z,28.20
2018-09-06T14:04:38.226Z,25.67
2018-09-06T14:07:06.523Z,23.80
2018-09-06T14:09:34.617Z,21.90
2018-09-06T14:12:04.293Z,23.33
2018-09-06T14:14:32.440Z,22.33
2018-09-06T14:17:00.546Z,21.60
2018-09-06T14:19:28.669Z,22.50
2018-09-06T14:21:56.797Z,22.37
2018-09-06T14:24:24.918Z,23.40
2018-09-06T14:26:53.025Z,23.83
2018-09-06T14:29:21.131Z,24.67
2018-09-06T14:31:49.253Z,27.30
2018-09-06T14:34:17.349Z,28.70
2018-09-06T14:36:45.454Z,28.00
2018-09-06T14:39:13.585Z,28.87
2018-09-06T14:41:41.705Z,27.47
2018-09-06T14:44:09.997Z,31.37
2018-09-06T14:46:37.993Z,32.00
2018-09-06T14:49:06.155Z,30.40
2018-09-06T14:51:34.258Z,33.77
2018-09-06T14:54:02.343Z,31.47
2018-09-06T14:56:30.461Z,30.47
2018-09-06T14:58:58.566Z,33.33
2018-09-06T15:01:26.698Z,30.00
2018-09-06T15:03:54.901Z,32.80
2018-09-06T15:06:23.026Z,32.87
2018-09-06T15:08:51.125Z,35.13
2018-09-06T15:11:19.230Z,35.50
2018-09-06T15:13:47.330Z,35.67
2018-09-06T15:16:15.449Z,32.63
2018-09-06T15:18:43.570Z,33.93
2018-09-06T15:21:11.674Z,33.83
2018-09-06T15:23:39.753Z,34.53
2018-09-06T15:26:07.873Z,32.93
2018-09-06T15:28:35.950Z,33.23
2018-09-06T15:31:04.041Z,32.97
2018-09-06T15:33:32.146Z,29.77
2018-09-06T15:36:00.246Z,33.30
2018-09-06T15:38:28.380Z,30.80
2018-09-06T15:40:56.813Z,32.67
2018-09-06T15:43:24.968Z,31.40
2018-09-06T15:45:53.038Z,32.57
2018-09-06T15:48:21.214Z,30.63
2018-09-06T15:50:49.320Z,31.93
2018-09-06T15:53:18.250Z,33.23
2018-09-06T15:55:46.392Z,30.80
2018-09-06T15:58:14.463Z,30.57
2018-09-06T16:00:42.587Z,29.57
2018-09-06T16:03:10.697Z,32.00
2018-09-06T16:05:38.813Z,30.93
2018-09-06T16:08:06.922Z,30.90
2018-09-06T16:10:35.016Z,32.93
2018-09-06T16:13:03.124Z,31.00
2018-09-06T16:15:31.220Z,33.53
2018-09-06T16:17:59.305Z,33.13
2018-09-06T16:20:27.399Z,32.73
2018-09-06T16:22:55.492Z,30.67
2018-09-06T16:25:23.669Z,33.20
2018-09-06T16:27:51.777Z,32.73
2018-09-06T16:30:19.975Z,30.23
2018-09-06T16:32:48.013Z,32.77
2018-09-06T16:35:16.119Z,33.27
2018-09-06T16:37:44.205Z,34.00
2018-09-06T16:40:12.293Z,36.00
2018-09-06T16:42:40.471Z,30.50
2018-09-06T16:45:08.547Z,29.10
2018-09-06T16:47:36.652Z,29.30
2018-09-06T16:50:04.757Z,28.30
2018-09-06T16:52:32.926Z,30.67
2018-09-06T16:55:00.981Z,30.07
2018-09-06T16:57:29.101Z,28.23
2018-09-06T16:59:57.212Z,31.13
2018-09-06T17:02:25.324Z,31.47
2018-09-06T17:04:53.461Z,31.40
2018-09-06T17:07:21.573Z,30.33
2018-09-06T17:09:49.734Z,29.93
2018-09-06T17:12:17.869Z,30.10
2018-09-06T17:14:46.005Z,29.67
2018-09-06T17:17:14.121Z,27.73
2018-09-06T17:19:42.336Z,27.80
2018-09-06T17:22:10.436Z,26.63
2018-09-06T17:24:38.534Z,27.33
2018-09-06T17:27:06.713Z,29.57
2018-09-06T17:29:34.838Z,27.23
2018-09-06T17:32:03.138Z,27.07
2018-09-06T17:34:31.254Z,29.57
2018-09-06T17:36:59.359Z,28.33
2018-09-06T17:39:27.469Z,28.67
2018-09-06T17:41:55.602Z,30.53
2018-09-06T17:44:23.706Z,30.63
2018-09-06T17:46:51.817Z,31.07
2018-09-06T17:49:19.926Z,29.30
2018-09-06T17:51:48.021Z,28.03
2018-09-06T17:54:16.121Z,30.40
2018-09-06T17:56:44.253Z,31.43
2018-09-06T17:59:12.384Z,29.27
2018-09-06T18:01:42.602Z,27.60
2018-09-06T18:04:10.784Z,23.23
2018-09-06T18:06:38.912Z,18.23
2018-09-06T18:09:08.390Z,12.67
2018-09-06T18:11:36.738Z,12.40
2018-09-06T18:14:04.870Z,12.10
2018-09-06T18:16:33.057Z,10.30
2018-09-06T18:19:01.193Z,10.13
2018-09-06T18:21:29.345Z,11.00
2018-09-06T18:23:57.722Z,10.83
2018-09-06T18:26:26.176Z,10.83
2018-09-06T18:28:54.299Z,12.00
2018-09-06T18:31:22.437Z,12.70
2018-09-06T18:33:50.618Z,13.07
2018-09-06T18:36:18.726Z,13.30
2018-09-06T18:38:47.465Z,13.80
2018-09-06T18:41:15.569Z,15.20
2018-09-06T18:43:43.814Z,14.37
2018-09-06T18:46:11.813Z,16.67
2018-09-06T18:48:40.077Z,17.60
2018-09-06T18:51:08.365Z,17.20
2018-09-06T18:53:36.496Z,17.67
2018-09-06T18:56:04.615Z,16.73
2018-09-06T18:58:32.721Z,16.20
2018-09-06T19:01:00.906Z,16.80
2018-09-06T19:03:29.032Z,16.93
2018-09-06T19:05:57.125Z,15.97
2018-09-06T19:08:25.286Z,15.57
2018-09-06T19:10:53.402Z,16.60
2018-09-06T19:13:21.544Z,17.13
2018-09-06T19:15:49.626Z,17.47
2018-09-06T19:18:17.793Z,17.07
2018-09-06T19:20:45.957Z,17.13
2018-09-06T19:23:14.068Z,18.17
2018-09-06T19:25:42.199Z,17.57
2018-09-06T19:28:10.289Z,19.33
2018-09-06T19:30:38.410Z,19.70
2018-09-06T19:33:06.587Z,18.50
2018-09-06T19:35:34.681Z,18.70
2018-09-06T19:38:02.778Z,20.50
2018-09-06T19:40:31.229Z,20.43
2018-09-06T19:42:59.357Z,23.20
2018-09-06T19:45:27.474Z,22.90
2018-09-06T19:47:55.573Z,25.63
2018-09-06T19:50:23.716Z,22.63
2018-09-06T19:52:51.828Z,23.33
2018-09-06T19:55:19.999Z,23.47
2018-09-06T19:57:48.254Z,24.60
2018-09-06T20:00:16.416Z,24.83
2018-09-06T20:02:44.489Z,25.27
2018-09-06T20:05:12.597Z,24.90
2018-09-06T20:07:40.695Z,29.77
2018-09-06T20:10:08.820Z,26.40
2018-09-06T20:12:37.123Z,25.70
2018-09-06T20:15:05.372Z,25.37
2018-09-06T20:17:33.662Z,26.33
2018-09-06T20:20:01.766Z,26.40
2018-09-06T20:22:30.032Z,27.70
2018-09-06T20:24:58.205Z,26.30
2018-09-06T20:27:26.310Z,29.50
2018-09-06T20:29:54.509Z,31.57
2018-09-06T20:32:22.626Z,30.90
2018-09-06T20:34:50.725Z,31.33
2018-09-06T20:37:18.834Z,32.73
2018-09-06T20:39:46.932Z,31.67
2018-09-06T20:42:15.074Z,34.50
2018-09-06T20:44:43.290Z,35.33
2018-09-06T20:47:11.373Z,34.40
2018-09-06T20:49:39.491Z,33.70
2018-09-06T20:52:07.712Z,32.27
2018-09-06T20:54:35.822Z,34.50
2018-09-06T20:57:04.266Z,33.80
2018-09-06T20:59:32.518Z,33.10
2018-09-06T21:02:06.189Z,31.57
2018-09-06T21:04:34.309Z,32.83
2018-09-06T21:07:02.685Z,33.17
2018-09-06T21:09:30.794Z,31.50
2018-09-06T21:11:58.898Z,32.13
2018-09-06T21:14:27.083Z,27.47
2018-09-06T21:16:55.117Z,27.83
2018-09-06T21:19:23.224Z,27.20
2018-09-06T21:21:51.421Z,24.50
2018-09-06T21:24:19.518Z,23.97
2018-09-06T21:26:47.616Z,24.47
2018-09-06T21:29:15.717Z,23.40
2018-09-06T21:31:43.843Z,22.03
2018-09-06T21:34:11.963Z,22.70
2018-09-06T21:36:40.077Z,21.57
2018-09-06T21:39:09.977Z,20.60
2018-09-06T21:41:38.167Z,20.30
2018-09-06T21:44:06.594Z,20.07
2018-09-06T21:46:34.881Z,21.17
2018-09-06T21:49:03.038Z,18.93
2018-09-06T21:51:31.182Z,17.77
2018-09-06T21:53:59.513Z,17.67
2018-09-06T21:56:27.637Z,17.97
2018-09-06T21:58:55.729Z,17.03
2018-09-06T22:01:24.158Z,16.97
2018-09-06T22:03:57.665Z,17.83
2018-09-06T22:06:25.790Z,17.37
2018-09-06T22:08:53.882Z,15.70
2018-09-06T22:11:22.165Z,14.50
2018-09-06T22:13:50.300Z,14.27
2018-09-06T22:16:18.625Z,13.93
2018-09-06T22:18:46.881Z,13.73
2018-09-06T22:21:15.016Z,14.13
2018-09-06T22:23:43.529Z,14.43
2018-09-06T22:26:11.625Z,14.63
2018-09-06T22:28:39.730Z,15.13
2018-09-06T22:31:08.012Z,16.43
2018-09-06T22:33:36.428Z,16.47
2018-09-06T22:36:04.890Z,18.97
2018-09-06T22:38:33.176Z,20.10
2018-09-06T22:41:08.026Z,20.93
2018-09-06T22:43:36.152Z,20.77
2018-09-06T22:46:04.281Z,20.77
2018-09-06T22:48:32.952Z,19.37
2018-09-06T22:51:01.590Z,20.00
2018-09-06T22:53:29.921Z,20.23
2018-09-06T22:55:58.070Z,18.87
2018-09-06T22:58:26.195Z,18.40
2018-09-06T23:00:54.298Z,17.20
2018-09-06T23:03:42.267Z,17.13
2018-09-06T23:06:10.422Z,17.97
2018-09-06T23:08:38.707Z,16.67
2018-09-06T23:11:06.842Z,15.93
2018-09-06T23:13:34.964Z,16.27
2018-09-06T23:16:03.070Z,17.57
2018-09-06T23:18:31.181Z,16.87
2018-09-06T23:20:59.305Z,16.60
2018-09-06T23:23:27.434Z,16.50
2018-09-06T23:25:55.646Z,15.33
2018-09-06T23:28:23.778Z,15.37
2018-09-06T23:30:51.896Z,16.37
2018-09-06T23:33:20.024Z,14.87
2018-09-06T23:35:48.154Z,15.87
2018-09-06T23:38:18.054Z,15.77
2018-09-06T23:40:51.545Z,15.57
2018-09-06T23:43:20.590Z,14.70
2018-09-06T23:45:51.706Z,14.93
2018-09-06T23:48:21.074Z,15.03
2018-09-06T23:50:49.147Z,15.20
2018-09-06T23:53:17.253Z,14.97
2018-09-06T23:55:45.356Z,15.70
2018-09-06T23:58:13.497Z,14.90
